Autryville, North Carolina
Current Conditions -  °F | °C
As of 7:53 AM on Friday 24 Oct 2014 (Local Time) from KFAY Reporting Station
Clear Clear  
Wind Chill: 10°   Ceiling: Unl
Heat Index: 10°   Visibility: 10mi
Dew Point:   Wind: 6mph
Humidity: 74%   Direction: 350°N
Pressure: 30.03"   Gusts: NA
Location:  35°N, 78.64°W
Report Text: KFAY 241153Z AUTO 35005KT 10SM CLR 10/06 A3003 RMK AO2 SLP165 T01000056 10117 20089 52009
Loading
Personal Weather Stations






























Interactive Weather Map
Tropical Storm Tracking
New forecast layout! Learn more

10-Day Weather Forecast

Advertisements
Track Severe Weather on mobile